createdAt,value
2022-09-09T00:00:17.818Z,19.12567139
2022-09-09T00:01:18.250Z,19.12567139
2022-09-09T00:02:18.822Z,19.15588379
2022-09-09T00:03:19.236Z,19.15588379
2022-09-09T00:04:19.484Z,19.16595459
2022-09-09T00:05:20.037Z,19.16595459
2022-09-09T00:06:21.015Z,19.12567139
2022-09-09T00:07:51.638Z,19.09545898
2022-09-09T00:08:52.025Z,19.08538818
2022-09-09T00:09:52.483Z,19.02496338
2022-09-09T00:10:52.979Z,19.01489258
2022-09-09T00:11:53.400Z,19.01489258
2022-09-09T00:12:54.509Z,19.01489258
2022-09-09T00:13:54.896Z,18.99475098
2022-09-09T00:14:55.308Z,18.99475098
2022-09-09T00:15:55.964Z,19.01489258
2022-09-09T00:16:57.234Z,19.02496338
2022-09-09T00:17:57.629Z,19.01489258
2022-09-09T00:18:58.041Z,19.02496338
2022-09-09T00:19:58.555Z,18.99475098
2022-09-09T00:21:00.057Z,18.97460938
2022-09-09T00:22:00.446Z,18.97460938
2022-09-09T00:23:00.845Z,18.96453857
2022-09-09T00:24:01.270Z,18.93432617
2022-09-09T00:25:01.849Z,18.93432617
2022-09-09T00:26:03.291Z,18.94439697
2022-09-09T00:27:04.238Z,18.96453857
2022-09-09T00:28:05.241Z,18.97460938
2022-09-09T00:29:05.643Z,18.99475098
2022-09-09T00:30:06.092Z,18.99475098
2022-09-09T00:31:06.589Z,18.96453857
2022-09-09T00:32:06.939Z,18.96453857
2022-09-09T00:33:09.071Z,18.91418457
2022-09-09T00:34:07.771Z,18.93432617
2022-09-09T00:35:08.266Z,18.90411377
2022-09-09T00:36:08.716Z,18.89404297
2022-09-09T00:37:09.717Z,18.87390137
2022-09-09T00:38:10.122Z,18.86383057
2022-09-09T00:39:10.523Z,18.87390137
2022-09-09T00:40:11.012Z,18.86383057
2022-09-09T00:41:11.663Z,18.84368896
2022-09-09T00:42:12.744Z,18.86383057
2022-09-09T00:43:13.153Z,18.87390137
2022-09-09T00:44:13.585Z,18.84368896
2022-09-09T00:45:13.985Z,18.87390137
2022-09-09T00:46:14.677Z,18.87390137
2022-09-09T00:47:15.745Z,18.86383057
2022-09-09T00:48:16.165Z,18.86383057
2022-09-09T00:49:16.570Z,18.84368896
2022-09-09T00:50:17.016Z,18.87390137
2022-09-09T00:51:17.504Z,18.87390137
2022-09-09T00:52:17.958Z,18.89404297
2022-09-09T00:53:18.414Z,18.87390137
2022-09-09T00:54:18.793Z,18.87390137
2022-09-09T00:55:19.794Z,18.84368896
2022-09-09T00:56:20.821Z,18.87390137
2022-09-09T00:57:51.919Z,18.83361816
2022-09-09T00:58:52.316Z,18.79333496
2022-09-09T00:59:52.725Z,18.83361816
2022-09-09T01:00:53.186Z,18.79333496
2022-09-09T01:01:53.732Z,18.74298096
2022-09-09T01:02:54.177Z,18.69262695
2022-09-09T01:03:54.515Z,18.68255615
2022-09-09T01:04:54.922Z,18.66241455
2022-09-09T01:05:55.328Z,18.69262695
2022-09-09T01:06:56.559Z,18.74298096
2022-09-09T01:07:58.462Z,18.79333496
2022-09-09T01:08:57.403Z,18.84368896
2022-09-09T01:09:57.859Z,18.87390137
2022-09-09T01:10:58.351Z,18.90411377
2022-09-09T01:11:58.795Z,18.93432617
2022-09-09T01:12:59.205Z,18.97460938
2022-09-09T01:13:59.650Z,18.99475098
2022-09-09T01:15:00.063Z,19.01489258
2022-09-09T01:16:02.043Z,19.06524658
2022-09-09T01:17:01.581Z,19.09545898
2022-09-09T01:18:02.005Z,19.09545898
2022-09-09T01:19:02.428Z,19.11560059
2022-09-09T01:20:02.830Z,19.12567139
2022-09-09T01:21:03.224Z,19.14581299
2022-09-09T01:22:03.679Z,19.14581299
2022-09-09T01:23:04.085Z,19.11560059
2022-09-09T01:24:05.518Z,19.08538818
2022-09-09T01:25:05.928Z,19.06524658
2022-09-09T01:26:06.335Z,19.04510498
2022-09-09T01:27:07.567Z,18.99475098
2022-09-09T01:28:07.980Z,18.94439697
2022-09-09T01:29:08.395Z,18.96453857
2022-09-09T01:30:08.873Z,18.97460938
2022-09-09T01:31:09.287Z,18.94439697
2022-09-09T01:32:10.285Z,18.91418457
2022-09-09T01:33:10.694Z,18.91418457
2022-09-09T01:34:11.374Z,18.87390137
2022-09-09T01:35:11.784Z,18.84368896
2022-09-09T01:36:12.222Z,18.83361816
2022-09-09T01:37:13.551Z,18.75305176
2022-09-09T01:38:13.975Z,18.68255615
2022-09-09T01:39:14.388Z,18.54156494
2022-09-09T01:40:14.901Z,18.42071533
2022-09-09T01:41:15.233Z,18.44085693
2022-09-09T01:42:15.714Z,18.46099854
2022-09-09T01:43:16.112Z,18.46099854
2022-09-09T01:44:16.558Z,18.46099854
2022-09-09T01:45:17.060Z,18.44085693
2022-09-09T01:46:17.434Z,18.44085693
2022-09-09T01:47:18.531Z,18.39050293
2022-09-09T01:48:19.022Z,18.35021973
2022-09-09T01:49:19.461Z,18.27972412
2022-09-09T01:50:50.309Z,18.16894531
2022-09-09T01:51:51.577Z,18.08837891
2022-09-09T01:52:51.991Z,18.0078125
2022-09-09T01:53:52.370Z,18.0078125
2022-09-09T01:54:52.773Z,17.9876709
2022-09-09T01:55:53.165Z,17.9776001
2022-09-09T01:56:54.544Z,17.9473877
2022-09-09T01:57:54.983Z,17.9776001
2022-09-09T01:58:55.355Z,18.0078125
2022-09-09T01:59:55.765Z,18.0178833
2022-09-09T02:00:56.223Z,18.0078125
2022-09-09T02:01:57.556Z,18.0380249
2022-09-09T02:02:57.975Z,18.0480957
2022-09-09T02:03:58.370Z,18.12866211
2022-09-09T02:04:58.773Z,18.15887451
2022-09-09T02:05:59.189Z,18.18908691
2022-09-09T02:07:00.535Z,18.16894531
2022-09-09T02:08:01.009Z,18.18908691
2022-09-09T02:09:01.411Z,18.18908691
2022-09-09T02:10:01.795Z,18.22937012
2022-09-09T02:11:02.254Z,18.18908691
2022-09-09T02:12:03.528Z,18.19915771
2022-09-09T02:13:04.009Z,18.13873291
2022-09-09T02:14:04.394Z,18.12866211
2022-09-09T02:15:04.788Z,18.09844971
2022-09-09T02:16:05.173Z,18.10852051
2022-09-09T02:17:06.558Z,18.0480957
2022-09-09T02:18:06.991Z,18.0078125
2022-09-09T02:19:07.362Z,18.0682373
2022-09-09T02:20:07.759Z,18.0682373
2022-09-09T02:21:08.184Z,18.09844971
2022-09-09T02:22:09.236Z,18.09844971
2022-09-09T02:23:09.748Z,18.09844971
2022-09-09T02:24:10.068Z,18.0682373
2022-09-09T02:25:10.453Z,18.08837891
2022-09-09T02:26:10.886Z,18.09844971
2022-09-09T02:27:12.038Z,18.08837891
2022-09-09T02:28:12.447Z,18.09844971
2022-09-09T02:29:12.835Z,18.09844971
2022-09-09T02:30:13.268Z,18.09844971
2022-09-09T02:31:13.717Z,18.13873291
2022-09-09T02:32:14.759Z,18.15887451
2022-09-09T02:33:15.230Z,18.18908691
2022-09-09T02:34:15.602Z,18.22937012
2022-09-09T02:35:16.013Z,18.25958252
2022-09-09T02:36:16.407Z,18.30993652
2022-09-09T02:37:17.511Z,18.35021973
2022-09-09T02:38:17.970Z,18.36029053
2022-09-09T02:39:18.309Z,18.41064453
2022-09-09T02:40:18.797Z,18.47106934
2022-09-09T02:41:49.729Z,18.50128174
2022-09-09T02:42:50.162Z,18.47106934
2022-09-09T02:43:50.593Z,18.50128174
2022-09-09T02:44:50.967Z,18.49121094
2022-09-09T02:45:52.297Z,18.46099854
2022-09-09T02:46:52.806Z,18.44085693
2022-09-09T02:47:53.723Z,18.39050293
2022-09-09T02:48:54.149Z,18.42071533
2022-09-09T02:49:54.519Z,18.46099854
2022-09-09T02:50:54.920Z,18.42071533
2022-09-09T02:51:55.359Z,18.47106934
2022-09-09T02:52:55.771Z,18.46099854
2022-09-09T02:53:56.192Z,18.50128174
2022-09-09T02:54:57.541Z,18.50128174
2022-09-09T02:55:57.953Z,18.51135254
2022-09-09T02:56:58.342Z,18.51135254
2022-09-09T02:57:59.253Z,18.49121094
2022-09-09T02:58:59.691Z,18.49121094
2022-09-09T03:00:00.048Z,18.49121094
2022-09-09T03:01:00.568Z,18.50128174
2022-09-09T03:02:01.712Z,18.51135254
2022-09-09T03:03:02.030Z,18.51135254
2022-09-09T03:04:02.493Z,18.53149414
2022-09-09T03:05:02.867Z,18.51135254
2022-09-09T03:06:03.255Z,18.50128174
2022-09-09T03:07:03.636Z,18.49121094
2022-09-09T03:08:04.050Z,18.50128174
2022-09-09T03:09:04.479Z,18.50128174
2022-09-09T03:10:04.859Z,18.49121094
2022-09-09T03:11:05.282Z,18.49121094
2022-09-09T03:12:05.723Z,18.46099854
2022-09-09T03:13:06.116Z,18.47106934
2022-09-09T03:14:06.593Z,18.42071533
2022-09-09T03:15:06.945Z,18.38043213
2022-09-09T03:16:07.383Z,18.35021973
2022-09-09T03:17:07.899Z,18.36029053
2022-09-09T03:18:08.178Z,18.35021973
2022-09-09T03:19:08.584Z,18.34014893
2022-09-09T03:20:08.977Z,18.35021973
2022-09-09T03:21:09.359Z,18.34014893
2022-09-09T03:22:09.746Z,18.34014893
2022-09-09T03:23:15.512Z,18.35021973
2022-09-09T03:24:11.478Z,18.36029053
2022-09-09T03:25:11.830Z,18.39050293
2022-09-09T03:26:12.227Z,18.42071533
2022-09-09T03:27:12.625Z,18.47106934
2022-09-09T03:28:13.755Z,18.49121094
2022-09-09T03:29:14.213Z,18.51135254
2022-09-09T03:30:14.579Z,18.56170654
2022-09-09T03:31:15.003Z,18.56170654
2022-09-09T03:32:15.466Z,18.57177734
2022-09-09T03:33:15.796Z,18.59191895
2022-09-09T03:34:16.201Z,18.57177734
2022-09-09T03:35:17.539Z,18.59191895
2022-09-09T03:36:17.943Z,18.59191895
2022-09-09T03:37:18.795Z,18.56170654
2022-09-09T03:38:49.943Z,18.57177734
2022-09-09T03:39:50.444Z,18.56170654
2022-09-09T03:40:50.794Z,18.56170654
2022-09-09T03:41:52.038Z,18.53149414
2022-09-09T03:42:52.439Z,18.50128174
2022-09-09T03:43:52.836Z,18.50128174
2022-09-09T03:44:53.270Z,18.47106934
2022-09-09T03:45:53.725Z,18.46099854
2022-09-09T03:46:54.073Z,18.44085693
2022-09-09T03:47:55.261Z,18.41064453
2022-09-09T03:48:55.466Z,18.36029053
2022-09-09T03:49:55.893Z,18.34014893
2022-09-09T03:50:56.273Z,18.35021973
2022-09-09T03:51:57.548Z,18.35021973
2022-09-09T03:52:57.914Z,18.30993652
2022-09-09T03:53:58.278Z,18.25958252
2022-09-09T03:54:58.735Z,18.25958252
2022-09-09T03:55:59.095Z,18.25958252
2022-09-09T03:56:59.519Z,18.28979492
2022-09-09T03:58:00.551Z,18.28979492
2022-09-09T03:59:00.955Z,18.32000732
2022-09-09T04:00:01.391Z,18.34014893
2022-09-09T04:01:01.830Z,18.32000732
2022-09-09T04:02:03.076Z,18.32000732
2022-09-09T04:03:03.531Z,18.32000732
2022-09-09T04:04:03.842Z,18.28979492
2022-09-09T04:05:04.304Z,18.28979492
2022-09-09T04:06:04.667Z,18.30993652
2022-09-09T04:07:05.064Z,18.28979492
2022-09-09T04:08:06.045Z,18.32000732
2022-09-09T04:09:06.445Z,18.32000732
2022-09-09T04:10:06.913Z,18.32000732
2022-09-09T04:11:07.391Z,18.30993652
2022-09-09T04:12:07.701Z,18.28979492
2022-09-09T04:13:08.094Z,18.25958252
2022-09-09T04:14:08.506Z,18.25958252
2022-09-09T04:15:08.937Z,18.27972412
2022-09-09T04:16:09.399Z,18.27972412
2022-09-09T04:17:09.765Z,18.28979492
2022-09-09T04:18:10.314Z,18.27972412
2022-09-09T04:19:10.532Z,18.28979492
2022-09-09T04:20:10.953Z,18.30993652
2022-09-09T04:21:11.490Z,18.34014893
2022-09-09T04:22:11.871Z,18.34014893
2022-09-09T04:23:12.273Z,18.34014893
2022-09-09T04:24:12.679Z,18.36029053
2022-09-09T04:25:13.085Z,18.38043213
2022-09-09T04:26:14.279Z,18.39050293
2022-09-09T04:27:14.695Z,18.38043213
2022-09-09T04:28:16.044Z,18.41064453
2022-09-09T04:29:16.492Z,18.42071533
2022-09-09T04:30:16.894Z,18.44085693
2022-09-09T04:31:17.415Z,18.42071533
2022-09-09T04:32:18.095Z,18.44085693
2022-09-09T04:33:48.722Z,18.47106934
2022-09-09T04:34:49.132Z,18.47106934
2022-09-09T04:35:50.106Z,18.46099854
2022-09-09T04:36:50.504Z,18.47106934
2022-09-09T04:37:51.755Z,18.47106934
2022-09-09T04:38:52.766Z,18.44085693
2022-09-09T04:39:53.224Z,18.41064453
2022-09-09T04:40:53.599Z,18.41064453
2022-09-09T04:41:53.976Z,18.42071533
2022-09-09T04:42:54.370Z,18.41064453
2022-09-09T04:43:54.786Z,18.41064453
2022-09-09T04:44:55.177Z,18.42071533
2022-09-09T04:45:55.632Z,18.41064453
2022-09-09T04:46:55.991Z,18.39050293
2022-09-09T04:47:57.061Z,18.42071533
2022-09-09T04:48:57.443Z,18.42071533
2022-09-09T04:49:58.747Z,18.41064453
2022-09-09T04:50:59.207Z,18.41064453
2022-09-09T04:51:59.592Z,18.42071533
2022-09-09T04:52:59.991Z,18.41064453
2022-09-09T04:54:00.380Z,18.42071533
2022-09-09T04:55:01.559Z,18.42071533
2022-09-09T04:56:02.058Z,18.42071533
2022-09-09T04:57:02.420Z,18.42071533
2022-09-09T04:58:03.577Z,18.42071533
2022-09-09T04:59:03.999Z,18.44085693
2022-09-09T05:00:05.058Z,18.44085693
2022-09-09T05:01:05.694Z,18.44085693
2022-09-09T05:02:05.866Z,18.46099854
2022-09-09T05:03:06.258Z,18.46099854
2022-09-09T05:04:06.795Z,18.46099854
2022-09-09T05:05:07.148Z,18.47106934
2022-09-09T05:06:08.290Z,18.49121094
2022-09-09T05:07:08.660Z,18.47106934
2022-09-09T05:08:09.628Z,18.47106934
2022-09-09T05:09:10.083Z,18.50128174
2022-09-09T05:10:10.510Z,18.49121094
2022-09-09T05:11:10.973Z,18.51135254
2022-09-09T05:12:11.506Z,18.53149414
2022-09-09T05:13:12.556Z,18.56170654
2022-09-09T05:14:13.057Z,18.59191895
2022-09-09T05:15:13.463Z,18.64227295
2022-09-09T05:16:14.026Z,18.65234375
2022-09-09T05:17:14.299Z,18.65234375
2022-09-09T05:18:15.574Z,18.65234375
2022-09-09T05:19:16.158Z,18.64227295
2022-09-09T05:20:17.583Z,18.62213135
2022-09-09T05:21:17.623Z,18.62213135
2022-09-09T05:22:48.210Z,18.60198975
2022-09-09T05:23:48.650Z,18.60198975
2022-09-09T05:24:49.072Z,18.60198975
2022-09-09T05:25:49.533Z,18.59191895
2022-09-09T05:26:50.091Z,18.56170654
2022-09-09T05:27:50.357Z,18.54156494
2022-09-09T05:28:50.767Z,18.57177734
2022-09-09T05:29:51.234Z,18.56170654
2022-09-09T05:30:51.683Z,18.56170654
2022-09-09T05:31:52.224Z,18.54156494
2022-09-09T05:32:52.564Z,18.54156494
2022-09-09T05:33:52.961Z,18.54156494
2022-09-09T05:34:53.424Z,18.51135254
2022-09-09T05:35:54.577Z,18.51135254
2022-09-09T05:36:55.037Z,18.50128174
2022-09-09T05:37:55.467Z,18.51135254
2022-09-09T05:38:56.767Z,18.53149414
2022-09-09T05:39:57.327Z,18.54156494
2022-09-09T05:40:57.663Z,18.54156494
2022-09-09T05:41:58.144Z,18.57177734
2022-09-09T05:42:58.578Z,18.56170654
2022-09-09T05:43:59.000Z,18.59191895
2022-09-09T05:44:59.495Z,18.59191895
2022-09-09T05:45:59.941Z,18.57177734
2022-09-09T05:47:00.435Z,18.59191895
2022-09-09T05:48:00.764Z,18.60198975
2022-09-09T05:49:01.826Z,18.59191895
2022-09-09T05:50:02.385Z,18.59191895
2022-09-09T05:51:02.699Z,18.57177734
2022-09-09T05:52:03.140Z,18.54156494
2022-09-09T05:53:03.545Z,18.53149414
2022-09-09T05:54:03.961Z,18.54156494
2022-09-09T05:55:04.375Z,18.53149414
2022-09-09T05:56:05.341Z,18.51135254
2022-09-09T05:57:05.754Z,18.49121094
2022-09-09T05:58:06.147Z,18.49121094
2022-09-09T05:59:07.304Z,18.50128174
2022-09-09T06:00:07.835Z,18.46099854
2022-09-09T06:01:08.268Z,18.41064453
2022-09-09T06:02:09.659Z,18.35021973
2022-09-09T06:03:10.052Z,18.36029053
2022-09-09T06:04:10.395Z,18.32000732
2022-09-09T06:05:11.010Z,18.35021973
2022-09-09T06:06:11.487Z,18.35021973
2022-09-09T06:07:12.603Z,18.32000732
2022-09-09T06:08:13.005Z,18.27972412
2022-09-09T06:09:14.274Z,18.27972412
2022-09-09T06:10:14.716Z,18.25958252
2022-09-09T06:11:15.186Z,18.22937012
2022-09-09T06:12:15.639Z,18.20922852
2022-09-09T06:13:16.052Z,18.20922852
2022-09-09T06:14:16.446Z,18.20922852
2022-09-09T06:15:47.362Z,18.25958252
2022-09-09T06:16:47.763Z,18.27972412
2022-09-09T06:17:48.238Z,18.28979492
2022-09-09T06:18:49.571Z,18.34014893
2022-09-09T06:19:49.992Z,18.36029053
2022-09-09T06:20:50.482Z,18.38043213
2022-09-09T06:21:50.922Z,18.38043213
2022-09-09T06:22:51.380Z,18.42071533
2022-09-09T06:23:51.768Z,18.42071533
2022-09-09T06:24:52.166Z,18.42071533
2022-09-09T06:25:53.629Z,18.44085693
2022-09-09T06:26:54.064Z,18.49121094
2022-09-09T06:27:54.537Z,18.50128174
2022-09-09T06:28:55.579Z,18.53149414
2022-09-09T06:29:55.983Z,18.54156494
2022-09-09T06:30:56.441Z,18.56170654
2022-09-09T06:31:56.976Z,18.59191895
2022-09-09T06:32:57.360Z,18.59191895
2022-09-09T06:33:57.728Z,18.62213135
2022-09-09T06:34:58.152Z,18.65234375
2022-09-09T06:35:59.575Z,18.69262695
2022-09-09T06:37:00.054Z,18.68255615
2022-09-09T06:38:01.319Z,18.69262695
2022-09-09T06:39:01.700Z,18.68255615
2022-09-09T06:40:02.290Z,18.71276855
2022-09-09T06:41:02.595Z,18.71276855
2022-09-09T06:42:03.094Z,18.71276855
2022-09-09T06:43:03.505Z,18.69262695
2022-09-09T06:44:03.917Z,18.72283936
2022-09-09T06:45:04.338Z,18.74298096
2022-09-09T06:46:04.744Z,18.76312256
2022-09-09T06:47:05.329Z,18.78326416
2022-09-09T06:48:05.715Z,18.78326416
2022-09-09T06:49:06.148Z,18.79333496
2022-09-09T06:50:06.616Z,18.82354736
2022-09-09T06:51:07.263Z,18.79333496
2022-09-09T06:52:07.524Z,18.79333496
2022-09-09T06:53:07.998Z,18.79333496
2022-09-09T06:54:08.403Z,18.79333496
2022-09-09T06:55:08.830Z,18.82354736
2022-09-09T06:56:09.796Z,18.84368896
2022-09-09T06:57:27.130Z,18.86383057
2022-09-09T06:58:11.541Z,18.89404297
2022-09-09T06:59:12.591Z,18.91418457
2022-09-09T07:00:13.000Z,18.93432617
2022-09-09T07:01:13.476Z,18.94439697
2022-09-09T07:02:14.690Z,19.01489258
2022-09-09T07:03:15.115Z,19.04510498
2022-09-09T07:04:15.512Z,19.08538818
2022-09-09T07:05:16.373Z,19.20623779
2022-09-09T07:06:47.172Z,19.2666626
2022-09-09T07:07:47.467Z,19.2767334
2022-09-09T07:08:55.928Z,19.246521
2022-09-09T07:09:49.322Z,19.20623779
2022-09-09T07:10:49.737Z,19.16595459
2022-09-09T07:11:50.132Z,19.16595459
2022-09-09T07:12:50.571Z,19.15588379
2022-09-09T07:13:51.055Z,19.14581299
2022-09-09T07:14:51.537Z,19.09545898
2022-09-09T07:15:51.968Z,19.06524658
2022-09-09T07:16:55.446Z,19.11560059
2022-09-09T07:17:53.584Z,19.12567139
2022-09-09T07:18:54.056Z,19.12567139
2022-09-09T07:19:55.345Z,19.16595459
2022-09-09T07:20:55.742Z,19.16595459
2022-09-09T07:21:56.295Z,19.14581299
2022-09-09T07:22:56.577Z,19.12567139
2022-09-09T07:23:57.001Z,19.12567139
2022-09-09T07:24:57.439Z,19.14581299
2022-09-09T07:25:58.586Z,19.15588379
2022-09-09T07:26:58.974Z,19.14581299
2022-09-09T07:27:59.404Z,19.14581299
2022-09-09T07:29:00.623Z,19.19616699
2022-09-09T07:30:01.033Z,19.22637939
2022-09-09T07:31:01.490Z,19.2767334
2022-09-09T07:32:01.883Z,19.3371582
2022-09-09T07:33:03.320Z,19.37744141
2022-09-09T07:34:03.830Z,19.41772461
2022-09-09T07:35:04.192Z,19.46807861
2022-09-09T07:36:04.603Z,19.52850342
2022-09-09T07:37:05.011Z,19.57885742
2022-09-09T07:38:06.278Z,19.63928223
2022-09-09T07:39:07.625Z,19.67956543
2022-09-09T07:40:08.106Z,19.64935303
2022-09-09T07:41:08.469Z,19.64935303
2022-09-09T07:42:08.878Z,19.67956543
2022-09-09T07:43:09.263Z,19.69970703
2022-09-09T07:44:09.810Z,19.75006104
2022-09-09T07:45:10.193Z,19.79034424
2022-09-09T07:46:10.690Z,19.80041504
2022-09-09T07:47:11.041Z,19.82055664
2022-09-09T07:48:11.550Z,19.82055664
2022-09-09T07:49:12.023Z,19.64935303
2022-09-09T07:50:13.311Z,19.63928223
2022-09-09T07:51:13.753Z,19.64935303
2022-09-09T07:52:18.104Z,19.61914063
2022-09-09T07:53:46.110Z,19.63928223
2022-09-09T07:54:46.609Z,19.54864502
2022-09-09T07:55:47.002Z,19.45800781
2022-09-09T07:56:47.429Z,19.41772461
2022-09-09T07:57:48.838Z,19.39758301
2022-09-09T07:58:49.298Z,19.39758301
2022-09-09T07:59:50.365Z,19.3170166
2022-09-09T08:00:50.779Z,19.2364502
2022-09-09T08:01:51.241Z,19.20623779
2022-09-09T08:02:51.623Z,19.19616699
2022-09-09T08:03:56.423Z,19.14581299
2022-09-09T08:04:52.511Z,19.15588379
2022-09-09T08:05:52.921Z,19.12567139
2022-09-09T08:06:53.353Z,19.11560059
2022-09-09T08:07:53.860Z,19.14581299
2022-09-09T08:08:54.191Z,19.19616699
2022-09-09T08:09:55.409Z,19.14581299
2022-09-09T08:10:55.810Z,19.12567139
2022-09-09T08:11:56.221Z,19.11560059
2022-09-09T08:13:15.220Z,19.12567139
2022-09-09T08:14:01.626Z,19.08538818
2022-09-09T08:14:57.536Z,19.09545898
2022-09-09T08:15:58.005Z,19.09545898
2022-09-09T08:16:58.417Z,19.08538818
2022-09-09T08:17:58.845Z,19.06524658
2022-09-09T08:18:59.286Z,19.04510498
2022-09-09T08:20:00.383Z,19.01489258
2022-09-09T08:21:00.796Z,19.02496338
2022-09-09T08:22:01.266Z,19.02496338
2022-09-09T08:23:01.682Z,19.05517578
2022-09-09T08:24:02.156Z,19.06524658
2022-09-09T08:25:02.645Z,19.12567139
2022-09-09T08:26:03.597Z,19.12567139
2022-09-09T08:27:04.022Z,19.12567139
2022-09-09T08:28:04.465Z,19.14581299
2022-09-09T08:29:04.864Z,19.2364502
2022-09-09T08:30:05.877Z,19.2666626
2022-09-09T08:31:06.403Z,19.3069458
2022-09-09T08:32:06.732Z,19.3371582
2022-09-09T08:33:08.100Z,19.37744141
2022-09-09T08:34:08.519Z,19.39758301
2022-09-09T08:35:08.934Z,19.39758301
2022-09-09T08:36:09.386Z,19.41772461
2022-09-09T08:37:09.810Z,19.44793701
2022-09-09T08:38:11.047Z,19.46807861
2022-09-09T08:39:10.662Z,19.45800781
2022-09-09T08:40:11.454Z,19.42779541
2022-09-09T08:41:11.821Z,19.45800781
2022-09-09T08:42:12.266Z,19.46807861
2022-09-09T08:43:12.685Z,19.45800781
2022-09-09T08:44:13.101Z,19.46807861
2022-09-09T08:45:13.561Z,19.48822021
2022-09-09T08:46:14.024Z,19.51843262
2022-09-09T08:47:14.447Z,19.56878662
2022-09-09T08:48:45.399Z,19.54864502
2022-09-09T08:49:46.634Z,19.56878662
2022-09-09T08:50:47.116Z,19.52850342
2022-09-09T08:51:47.541Z,19.51843262
2022-09-09T08:52:47.971Z,19.42779541
2022-09-09T08:53:48.358Z,19.3371582
2022-09-09T08:54:52.464Z,19.2767334
2022-09-09T08:55:49.194Z,19.19616699
2022-09-09T08:56:50.353Z,19.16595459
2022-09-09T08:57:50.799Z,19.22637939
2022-09-09T08:58:51.815Z,19.20623779
2022-09-09T08:59:53.122Z,19.14581299
2022-09-09T09:00:53.617Z,19.09545898
2022-09-09T09:01:54.058Z,19.06524658
2022-09-09T09:02:54.415Z,19.05517578
2022-09-09T09:03:54.825Z,19.05517578
2022-09-09T09:04:56.164Z,19.09545898
2022-09-09T09:05:56.576Z,19.12567139
2022-09-09T09:06:57.609Z,19.19616699
2022-09-09T09:07:58.040Z,19.22637939
2022-09-09T09:08:58.632Z,19.2666626
2022-09-09T09:09:59.601Z,19.3170166
2022-09-09T09:11:00.078Z,19.38751221
2022-09-09T09:12:00.499Z,19.39758301
2022-09-09T09:13:00.914Z,19.347229
2022-09-09T09:14:01.323Z,19.3371582
2022-09-09T09:15:01.723Z,19.3069458
2022-09-09T09:16:02.256Z,19.246521
2022-09-09T09:17:02.674Z,19.16595459
2022-09-09T09:18:03.105Z,19.16595459
2022-09-09T09:19:03.542Z,19.19616699
2022-09-09T09:20:04.610Z,19.11560059
2022-09-09T09:21:05.057Z,19.08538818
2022-09-09T09:22:05.525Z,19.05517578
2022-09-09T09:23:05.957Z,19.05517578
2022-09-09T09:24:06.400Z,19.06524658
2022-09-09T09:25:07.314Z,19.11560059
2022-09-09T09:26:07.725Z,19.09545898
2022-09-09T09:27:08.208Z,19.05517578
2022-09-09T09:28:09.615Z,19.02496338
2022-09-09T09:29:10.055Z,18.97460938
2022-09-09T09:30:24.261Z,19.04510498
2022-09-09T09:31:11.991Z,19.06524658
2022-09-09T09:32:12.331Z,19.08538818
2022-09-09T09:33:12.752Z,19.11560059
2022-09-09T09:34:14.141Z,19.15588379
2022-09-09T09:35:44.956Z,19.19616699
2022-09-09T09:36:45.310Z,19.22637939
2022-09-09T09:40:03.772Z,19.2767334
2022-09-09T09:40:48.567Z,19.3170166
2022-09-09T09:41:49.156Z,19.347229
2022-09-09T09:42:50.398Z,19.39758301
2022-09-09T09:43:50.889Z,19.44793701
2022-09-09T09:44:51.328Z,19.48822021
2022-09-09T09:46:13.874Z,19.48822021
2022-09-09T09:46:52.326Z,19.49829102
2022-09-09T09:47:55.470Z,19.52850342
2022-09-09T09:48:53.188Z,19.56878662
2022-09-09T09:49:54.133Z,19.59899902
2022-09-09T09:50:54.527Z,19.60906982
2022-09-09T09:51:55.020Z,19.64935303
2022-09-09T09:52:55.471Z,19.71984863
2022-09-09T09:53:55.938Z,19.71984863
2022-09-09T09:54:56.359Z,19.75006104
2022-09-09T09:55:56.850Z,19.78027344
2022-09-09T09:56:57.491Z,19.83062744
2022-09-09T09:57:58.468Z,19.89105225
2022-09-09T09:58:58.862Z,19.87091064
2022-09-09T09:59:59.307Z,19.92126465
2022-09-09T10:01:00.343Z,19.92126465
2022-09-09T10:02:00.869Z,19.94140625
2022-09-09T10:03:01.301Z,20.01190186
2022-09-09T10:04:01.785Z,20.00183105
2022-09-09T10:05:02.383Z,19.92126465
2022-09-09T10:06:02.734Z,19.87091064
2022-09-09T10:07:03.274Z,19.86083984
2022-09-09T10:08:03.722Z,19.90112305
2022-09-09T10:09:04.165Z,19.92126465
2022-09-09T10:10:05.143Z,19.85076904
2022-09-09T10:11:05.560Z,19.82055664
2022-09-09T10:12:06.048Z,19.82055664
2022-09-09T10:13:06.577Z,19.80041504
2022-09-09T10:14:06.975Z,19.75006104
2022-09-09T10:15:07.400Z,19.75006104
2022-09-09T10:16:07.851Z,19.70977783
2022-09-09T10:17:08.257Z,19.69970703
2022-09-09T10:18:08.735Z,19.64935303
2022-09-09T10:19:10.135Z,19.60906982
2022-09-09T10:20:10.749Z,19.56878662
2022-09-09T10:21:11.630Z,19.57885742
2022-09-09T10:22:12.159Z,19.59899902
2022-09-09T10:23:12.632Z,19.60906982
2022-09-09T10:24:13.083Z,19.60906982
2022-09-09T10:25:13.875Z,19.61914063
2022-09-09T10:26:44.479Z,19.57885742
2022-09-09T10:27:45.007Z,19.57885742
2022-09-09T10:28:45.490Z,19.56878662
2022-09-09T10:29:45.950Z,19.51843262
2022-09-09T10:30:47.365Z,19.51843262
2022-09-09T10:31:47.717Z,19.48822021
2022-09-09T10:32:48.270Z,19.46807861
2022-09-09T10:33:48.657Z,19.39758301
2022-09-09T10:34:49.112Z,19.39758301
2022-09-09T10:35:50.338Z,19.38751221
2022-09-09T10:36:50.771Z,19.3371582
2022-09-09T10:37:52.179Z,19.3371582
2022-09-09T10:38:52.591Z,19.347229
2022-09-09T10:39:53.042Z,19.37744141
2022-09-09T10:40:54.367Z,19.38751221
2022-09-09T10:41:54.821Z,19.41772461
2022-09-09T10:42:56.186Z,19.46807861
2022-09-09T10:44:00.254Z,19.52850342
2022-09-09T10:44:56.965Z,19.61914063
2022-09-09T10:45:57.574Z,19.67956543
2022-09-09T10:47:01.785Z,19.75006104
2022-09-09T10:47:58.383Z,19.79034424
2022-09-09T10:48:58.787Z,19.86083984
2022-09-09T10:49:59.200Z,19.89105225
2022-09-09T10:51:03.746Z,19.94140625
2022-09-09T10:52:00.831Z,19.95147705
2022-09-09T10:53:01.284Z,20.02197266
2022-09-09T10:54:02.626Z,20.05218506
2022-09-09T10:55:03.048Z,20.12268066
2022-09-09T10:56:03.507Z,20.16296387
2022-09-09T10:57:04.871Z,20.20324707
2022-09-09T10:58:05.320Z,20.22338867
2022-09-09T10:59:05.691Z,20.25360107
2022-09-09T11:00:06.102Z,20.19317627
2022-09-09T11:01:07.147Z,20.19317627
2022-09-09T11:02:07.597Z,20.20324707
2022-09-09T11:03:08.075Z,20.20324707